sensor_id;sensor_type;location;lat;lon;timestamp;temperature;humidity
23377;DHT22;14353;46.070;13.222;2022-08-30T00:00:20;29.80;49.80
23377;DHT22;14353;46.070;13.222;2022-08-30T00:03:06;29.80;49.80
23377;DHT22;14353;46.070;13.222;2022-08-30T00:05:32;29.80;49.90
23377;DHT22;14353;46.070;13.222;2022-08-30T00:07:59;29.80;49.80
23377;DHT22;14353;46.070;13.222;2022-08-30T00:10:26;29.80;49.80
23377;DHT22;14353;46.070;13.222;2022-08-30T00:12:54;29.80;49.90
23377;DHT22;14353;46.070;13.222;2022-08-30T00:15:20;29.80;49.80
23377;DHT22;14353;46.070;13.222;2022-08-30T00:17:47;29.80;49.80
23377;DHT22;14353;46.070;13.222;2022-08-30T00:20:16;29.80;49.90
23377;DHT22;14353;46.070;13.222;2022-08-30T00:22:43;29.70;49.80
23377;DHT22;14353;46.070;13.222;2022-08-30T00:25:09;29.70;50.50
23377;DHT22;14353;46.070;13.222;2022-08-30T00:27:35;29.70;49.80
23377;DHT22;14353;46.070;13.222;2022-08-30T00:30:01;29.80;49.90
23377;DHT22;14353;46.070;13.222;2022-08-30T00:32:27;29.70;49.80
23377;DHT22;14353;46.070;13.222;2022-08-30T00:34:53;29.80;49.90
23377;DHT22;14353;46.070;13.222;2022-08-30T00:37:19;29.70;49.90
23377;DHT22;14353;46.070;13.222;2022-08-30T00:39:46;29.70;49.80
23377;DHT22;14353;46.070;13.222;2022-08-30T00:42:14;29.80;49.90
23377;DHT22;14353;46.070;13.222;2022-08-30T00:44:41;29.70;49.90
23377;DHT22;14353;46.070;13.222;2022-08-30T00:47:07;29.70;49.90
23377;DHT22;14353;46.070;13.222;2022-08-30T00:49:34;29.80;49.90
23377;DHT22;14353;46.070;13.222;2022-08-30T00:52:03;29.80;49.90
23377;DHT22;14353;46.070;13.222;2022-08-30T00:54:30;29.70;49.90
23377;DHT22;14353;46.070;13.222;2022-08-30T00:56:57;29.70;49.90
23377;DHT22;14353;46.070;13.222;2022-08-30T00:59:24;29.70;49.90
23377;DHT22;14353;46.070;13.222;2022-08-30T01:01:51;29.70;49.90
23377;DHT22;14353;46.070;13.222;2022-08-30T01:04:17;29.70;49.90
23377;DHT22;14353;46.070;13.222;2022-08-30T01:06:46;29.70;49.90
23377;DHT22;14353;46.070;13.222;2022-08-30T01:09:13;29.70;49.80
23377;DHT22;14353;46.070;13.222;2022-08-30T01:11:40;29.70;49.90
23377;DHT22;14353;46.070;13.222;2022-08-30T01:14:08;29.70;49.90
23377;DHT22;14353;46.070;13.222;2022-08-30T01:16:37;29.70;49.90
23377;DHT22;14353;46.070;13.222;2022-08-30T01:19:05;29.70;49.90
23377;DHT22;14353;46.070;13.222;2022-08-30T01:21:39;29.70;49.80
23377;DHT22;14353;46.070;13.222;2022-08-30T01:24:06;29.70;49.80
23377;DHT22;14353;46.070;13.222;2022-08-30T01:26:34;29.70;49.80
23377;DHT22;14353;46.070;13.222;2022-08-30T01:29:05;29.70;49.80
23377;DHT22;14353;46.070;13.222;2022-08-30T01:31:32;29.70;49.80
23377;DHT22;14353;46.070;13.222;2022-08-30T01:34:03;29.70;49.80
23377;DHT22;14353;46.070;13.222;2022-08-30T01:36:34;29.60;49.70
23377;DHT22;14353;46.070;13.222;2022-08-30T01:39:02;29.60;49.70
23377;DHT22;14353;46.070;13.222;2022-08-30T01:41:31;29.60;49.70
23377;DHT22;14353;46.070;13.222;2022-08-30T01:44:00;29.60;49.70
23377;DHT22;14353;46.070;13.222;2022-08-30T01:46:31;29.70;49.80
23377;DHT22;14353;46.070;13.222;2022-08-30T01:49:02;29.70;49.80
23377;DHT22;14353;46.070;13.222;2022-08-30T01:51:28;29.60;49.60
23377;DHT22;14353;46.070;13.222;2022-08-30T01:53:55;29.70;49.70
23377;DHT22;14353;46.070;13.222;2022-08-30T01:56:23;29.60;49.60
23377;DHT22;14353;46.070;13.222;2022-08-30T01:58:50;29.60;49.70
23377;DHT22;14353;46.070;13.222;2022-08-30T02:01:18;29.60;49.70
23377;DHT22;14353;46.070;13.222;2022-08-30T02:03:45;29.60;49.70
23377;DHT22;14353;46.070;13.222;2022-08-30T02:06:15;29.60;49.70
23377;DHT22;14353;46.070;13.222;2022-08-30T02:08:42;29.60;49.70
23377;DHT22;14353;46.070;13.222;2022-08-30T02:11:08;29.60;49.60
23377;DHT22;14353;46.070;13.222;2022-08-30T02:13:35;29.60;49.70
23377;DHT22;14353;46.070;13.222;2022-08-30T02:16:03;29.60;49.70
23377;DHT22;14353;46.070;13.222;2022-08-30T02:18:32;29.60;49.70
23377;DHT22;14353;46.070;13.222;2022-08-30T02:20:59;29.60;49.60
23377;DHT22;14353;46.070;13.222;2022-08-30T02:23:26;29.60;49.60
23377;DHT22;14353;46.070;13.222;2022-08-30T02:25:52;29.60;49.70
23377;DHT22;14353;46.070;13.222;2022-08-30T02:28:18;29.60;49.70
23377;DHT22;14353;46.070;13.222;2022-08-30T02:30:46;29.60;50.30
23377;DHT22;14353;46.070;13.222;2022-08-30T02:33:12;29.60;49.70
23377;DHT22;14353;46.070;13.222;2022-08-30T02:35:38;29.60;49.70
23377;DHT22;14353;46.070;13.222;2022-08-30T02:38:05;29.60;49.70
23377;DHT22;14353;46.070;13.222;2022-08-30T02:40:31;29.60;49.70
23377;DHT22;14353;46.070;13.222;2022-08-30T02:42:57;29.60;49.70
23377;DHT22;14353;46.070;13.222;2022-08-30T02:45:24;29.60;49.70
23377;DHT22;14353;46.070;13.222;2022-08-30T02:47:50;29.60;49.70
23377;DHT22;14353;46.070;13.222;2022-08-30T02:50:17;29.50;49.70
23377;DHT22;14353;46.070;13.222;2022-08-30T02:52:43;29.60;49.70
23377;DHT22;14353;46.070;13.222;2022-08-30T02:55:10;29.60;49.70
23377;DHT22;14353;46.070;13.222;2022-08-30T02:57:36;29.60;49.70
23377;DHT22;14353;46.070;13.222;2022-08-30T03:00:06;29.60;49.70
23377;DHT22;14353;46.070;13.222;2022-08-30T03:02:33;29.50;49.70
23377;DHT22;14353;46.070;13.222;2022-08-30T03:04:59;29.50;49.80
23377;DHT22;14353;46.070;13.222;2022-08-30T03:07:25;29.60;49.80
23377;DHT22;14353;46.070;13.222;2022-08-30T03:09:51;29.50;49.70
23377;DHT22;14353;46.070;13.222;2022-08-30T03:12:18;29.50;49.70
23377;DHT22;14353;46.070;13.222;2022-08-30T03:14:44;29.50;49.70
23377;DHT22;14353;46.070;13.222;2022-08-30T03:17:10;29.50;49.70
23377;DHT22;14353;46.070;13.222;2022-08-30T03:19:36;29.50;49.80
23377;DHT22;14353;46.070;13.222;2022-08-30T03:22:04;29.50;49.80
23377;DHT22;14353;46.070;13.222;2022-08-30T03:24:30;29.50;49.70
23377;DHT22;14353;46.070;13.222;2022-08-30T03:26:57;29.50;49.80
23377;DHT22;14353;46.070;13.222;2022-08-30T03:29:22;29.50;49.80
23377;DHT22;14353;46.070;13.222;2022-08-30T03:31:56;29.50;49.80
23377;DHT22;14353;46.070;13.222;2022-08-30T03:34:24;29.50;49.80
23377;DHT22;14353;46.070;13.222;2022-08-30T03:36:54;29.50;49.70
23377;DHT22;14353;46.070;13.222;2022-08-30T03:39:21;29.50;49.80
23377;DHT22;14353;46.070;13.222;2022-08-30T03:41:48;29.50;49.80
23377;DHT22;14353;46.070;13.222;2022-08-30T03:44:14;29.50;49.80
23377;DHT22;14353;46.070;13.222;2022-08-30T03:46:40;29.50;49.80
23377;DHT22;14353;46.070;13.222;2022-08-30T03:49:06;29.50;49.80
23377;DHT22;14353;46.070;13.222;2022-08-30T03:51:32;29.50;49.70
23377;DHT22;14353;46.070;13.222;2022-08-30T03:53:59;29.50;49.80
23377;DHT22;14353;46.070;13.222;2022-08-30T03:56:26;29.50;49.70
23377;DHT22;14353;46.070;13.222;2022-08-30T03:58:52;29.40;49.70
23377;DHT22;14353;46.070;13.222;2022-08-30T04:01:18;29.40;49.60
23377;DHT22;14353;46.070;13.222;2022-08-30T04:03:44;29.40;49.70
23377;DHT22;14353;46.070;13.222;2022-08-30T04:06:10;29.50;49.70
23377;DHT22;14353;46.070;13.222;2022-08-30T04:08:37;29.50;49.70
23377;DHT22;14353;46.070;13.222;2022-08-30T04:11:04;29.50;49.70
23377;DHT22;14353;46.070;13.222;2022-08-30T04:13:31;29.40;49.60
23377;DHT22;14353;46.070;13.222;2022-08-30T04:15:58;29.40;49.60
23377;DHT22;14353;46.070;13.222;2022-08-30T04:18:24;29.50;49.70
23377;DHT22;14353;46.070;13.222;2022-08-30T04:20:51;29.40;49.60
23377;DHT22;14353;46.070;13.222;2022-08-30T04:23:18;29.40;49.60
23377;DHT22;14353;46.070;13.222;2022-08-30T04:25:44;29.50;49.60
23377;DHT22;14353;46.070;13.222;2022-08-30T04:28:11;29.40;49.60
23377;DHT22;14353;46.070;13.222;2022-08-30T04:30:42;29.40;49.60
23377;DHT22;14353;46.070;13.222;2022-08-30T04:33:09;29.50;49.60
23377;DHT22;14353;46.070;13.222;2022-08-30T04:35:38;29.40;49.50
23377;DHT22;14353;46.070;13.222;2022-08-30T04:38:04;29.40;49.50
23377;DHT22;14353;46.070;13.222;2022-08-30T04:40:30;29.40;49.50
23377;DHT22;14353;46.070;13.222;2022-08-30T04:42:56;29.40;49.50
23377;DHT22;14353;46.070;13.222;2022-08-30T04:45:24;29.40;49.50
23377;DHT22;14353;46.070;13.222;2022-08-30T04:47:50;29.40;49.40
23377;DHT22;14353;46.070;13.222;2022-08-30T04:50:18;29.50;49.50
23377;DHT22;14353;46.070;13.222;2022-08-30T04:52:45;29.50;49.40
23377;DHT22;14353;46.070;13.222;2022-08-30T04:55:12;29.40;49.40
23377;DHT22;14353;46.070;13.222;2022-08-30T04:57:38;29.40;49.30
23377;DHT22;14353;46.070;13.222;2022-08-30T05:00:10;29.40;49.30
23377;DHT22;14353;46.070;13.222;2022-08-30T05:02:38;29.40;49.20
23377;DHT22;14353;46.070;13.222;2022-08-30T05:05:05;29.40;49.20
23377;DHT22;14353;46.070;13.222;2022-08-30T05:07:50;29.40;49.20
23377;DHT22;14353;46.070;13.222;2022-08-30T05:10:16;29.50;49.20
23377;DHT22;14353;46.070;13.222;2022-08-30T05:12:42;29.50;49.20
23377;DHT22;14353;46.070;13.222;2022-08-30T05:15:10;29.50;49.20
23377;DHT22;14353;46.070;13.222;2022-08-30T05:17:37;29.40;49.10
23377;DHT22;14353;46.070;13.222;2022-08-30T05:20:04;29.50;49.20
23377;DHT22;14353;46.070;13.222;2022-08-30T05:22:31;29.50;49.20
23377;DHT22;14353;46.070;13.222;2022-08-30T05:24:58;29.50;49.20
23377;DHT22;14353;46.070;13.222;2022-08-30T05:27:24;29.50;49.10
23377;DHT22;14353;46.070;13.222;2022-08-30T05:29:50;29.40;49.10
23377;DHT22;14353;46.070;13.222;2022-08-30T05:32:16;29.50;49.10
23377;DHT22;14353;46.070;13.222;2022-08-30T05:34:43;29.40;49.00
23377;DHT22;14353;46.070;13.222;2022-08-30T05:37:10;29.50;49.10
23377;DHT22;14353;46.070;13.222;2022-08-30T05:39:36;29.50;49.10
23377;DHT22;14353;46.070;13.222;2022-08-30T05:42:01;29.50;49.10
23377;DHT22;14353;46.070;13.222;2022-08-30T05:44:28;29.50;49.70
23377;DHT22;14353;46.070;13.222;2022-08-30T05:46:54;29.50;48.90
23377;DHT22;14353;46.070;13.222;2022-08-30T05:49:20;29.50;48.80
23377;DHT22;14353;46.070;13.222;2022-08-30T05:51:45;29.50;48.80
23377;DHT22;14353;46.070;13.222;2022-08-30T05:54:13;29.50;48.90
23377;DHT22;14353;46.070;13.222;2022-08-30T05:56:41;29.50;49.50
23377;DHT22;14353;46.070;13.222;2022-08-30T05:59:13;29.50;48.80
23377;DHT22;14353;46.070;13.222;2022-08-30T06:01:43;29.50;48.90
23377;DHT22;14353;46.070;13.222;2022-08-30T06:04:11;29.50;48.80
23377;DHT22;14353;46.070;13.222;2022-08-30T06:06:39;29.50;48.90
23377;DHT22;14353;46.070;13.222;2022-08-30T06:09:07;29.50;48.80
23377;DHT22;14353;46.070;13.222;2022-08-30T06:11:33;29.50;48.80
23377;DHT22;14353;46.070;13.222;2022-08-30T06:14:00;29.50;48.80
23377;DHT22;14353;46.070;13.222;2022-08-30T06:16:27;29.50;48.90
23377;DHT22;14353;46.070;13.222;2022-08-30T06:18:54;29.50;49.00
23377;DHT22;14353;46.070;13.222;2022-08-30T06:21:24;29.60;49.10
23377;DHT22;14353;46.070;13.222;2022-08-30T06:23:51;29.50;49.00
23377;DHT22;14353;46.070;13.222;2022-08-30T06:26:17;29.50;49.00
23377;DHT22;14353;46.070;13.222;2022-08-30T06:28:44;29.60;49.00
23377;DHT22;14353;46.070;13.222;2022-08-30T06:31:14;29.60;49.10
23377;DHT22;14353;46.070;13.222;2022-08-30T06:33:40;29.50;48.90
23377;DHT22;14353;46.070;13.222;2022-08-30T06:36:13;29.60;48.90
23377;DHT22;14353;46.070;13.222;2022-08-30T06:38:39;29.60;48.90
23377;DHT22;14353;46.070;13.222;2022-08-30T06:41:12;29.60;48.90
23377;DHT22;14353;46.070;13.222;2022-08-30T06:43:38;29.60;49.00
23377;DHT22;14353;46.070;13.222;2022-08-30T06:46:10;29.60;48.90
23377;DHT22;14353;46.070;13.222;2022-08-30T06:48:36;29.60;48.80
23377;DHT22;14353;46.070;13.222;2022-08-30T06:51:03;29.60;49.00
23377;DHT22;14353;46.070;13.222;2022-08-30T06:53:29;29.60;48.80
23377;DHT22;14353;46.070;13.222;2022-08-30T06:56:02;29.70;48.70
23377;DHT22;14353;46.070;13.222;2022-08-30T06:58:30;29.60;48.60
23377;DHT22;14353;46.070;13.222;2022-08-30T07:01:00;29.60;48.50
23377;DHT22;14353;46.070;13.222;2022-08-30T07:03:26;29.60;48.20
23377;DHT22;14353;46.070;13.222;2022-08-30T07:05:53;29.60;48.10
23377;DHT22;14353;46.070;13.222;2022-08-30T07:08:20;29.60;48.00
23377;DHT22;14353;46.070;13.222;2022-08-30T07:10:48;29.60;47.90
23377;DHT22;14353;46.070;13.222;2022-08-30T07:13:14;29.60;47.80
23377;DHT22;14353;46.070;13.222;2022-08-30T07:15:42;29.60;47.80
23377;DHT22;14353;46.070;13.222;2022-08-30T07:18:10;29.60;47.70
23377;DHT22;14353;46.070;13.222;2022-08-30T07:20:55;29.60;47.70
23377;DHT22;14353;46.070;13.222;2022-08-30T07:23:21;29.60;47.70
23377;DHT22;14353;46.070;13.222;2022-08-30T07:25:47;29.60;47.70
23377;DHT22;14353;46.070;13.222;2022-08-30T07:28:13;29.70;47.80
23377;DHT22;14353;46.070;13.222;2022-08-30T07:30:40;29.60;47.70
23377;DHT22;14353;46.070;13.222;2022-08-30T07:33:06;29.70;47.90
23377;DHT22;14353;46.070;13.222;2022-08-30T07:35:33;29.70;47.80
23377;DHT22;14353;46.070;13.222;2022-08-30T07:38:00;29.70;47.80
23377;DHT22;14353;46.070;13.222;2022-08-30T07:40:27;29.70;47.90
23377;DHT22;14353;46.070;13.222;2022-08-30T07:42:53;29.70;47.80
23377;DHT22;14353;46.070;13.222;2022-08-30T07:45:19;29.70;47.80
23377;DHT22;14353;46.070;13.222;2022-08-30T07:47:45;29.70;47.90
23377;DHT22;14353;46.070;13.222;2022-08-30T07:50:12;29.70;48.10
23377;DHT22;14353;46.070;13.222;2022-08-30T07:52:38;29.70;47.90
23377;DHT22;14353;46.070;13.222;2022-08-30T07:55:04;29.70;47.80
23377;DHT22;14353;46.070;13.222;2022-08-30T07:57:31;29.70;47.70
23377;DHT22;14353;46.070;13.222;2022-08-30T08:00:00;29.70;47.60
23377;DHT22;14353;46.070;13.222;2022-08-30T08:02:27;29.80;47.50
23377;DHT22;14353;46.070;13.222;2022-08-30T08:04:52;29.80;47.50
23377;DHT22;14353;46.070;13.222;2022-08-30T08:07:19;29.80;47.50
23377;DHT22;14353;46.070;13.222;2022-08-30T08:09:48;29.80;47.40
23377;DHT22;14353;46.070;13.222;2022-08-30T08:12:14;29.80;47.30
23377;DHT22;14353;46.070;13.222;2022-08-30T08:14:40;29.80;47.40
23377;DHT22;14353;46.070;13.222;2022-08-30T08:17:07;29.80;47.40
23377;DHT22;14353;46.070;13.222;2022-08-30T08:19:33;29.80;47.40
23377;DHT22;14353;46.070;13.222;2022-08-30T08:21:59;29.80;47.30
23377;DHT22;14353;46.070;13.222;2022-08-30T08:24:26;29.80;47.10
23377;DHT22;14353;46.070;13.222;2022-08-30T08:26:53;29.80;47.10
23377;DHT22;14353;46.070;13.222;2022-08-30T08:29:20;29.80;47.00
23377;DHT22;14353;46.070;13.222;2022-08-30T08:31:47;29.80;47.00
23377;DHT22;14353;46.070;13.222;2022-08-30T08:34:13;29.80;47.10
23377;DHT22;14353;46.070;13.222;2022-08-30T08:36:40;29.80;47.10
23377;DHT22;14353;46.070;13.222;2022-08-30T08:39:07;29.80;47.10
23377;DHT22;14353;46.070;13.222;2022-08-30T08:41:49;29.80;47.10
23377;DHT22;14353;46.070;13.222;2022-08-30T08:44:43;29.80;47.20
23377;DHT22;14353;46.070;13.222;2022-08-30T08:47:15;29.80;47.10
23377;DHT22;14353;46.070;13.222;2022-08-30T08:49:45;29.90;47.20
23377;DHT22;14353;46.070;13.222;2022-08-30T08:52:21;29.90;47.10
23377;DHT22;14353;46.070;13.222;2022-08-30T08:55:12;29.90;47.10
23377;DHT22;14353;46.070;13.222;2022-08-30T08:57:39;29.90;47.10
23377;DHT22;14353;46.070;13.222;2022-08-30T09:00:07;29.90;47.10
23377;DHT22;14353;46.070;13.222;2022-08-30T09:02:54;29.90;47.00
23377;DHT22;14353;46.070;13.222;2022-08-30T09:05:26;29.90;47.00
23377;DHT22;14353;46.070;13.222;2022-08-30T09:08:14;29.90;47.00
23377;DHT22;14353;46.070;13.222;2022-08-30T09:10:52;29.90;47.10
23377;DHT22;14353;46.070;13.222;2022-08-30T09:13:22;29.90;47.10
23377;DHT22;14353;46.070;13.222;2022-08-30T09:15:52;29.90;47.10
23377;DHT22;14353;46.070;13.222;2022-08-30T09:18:18;30.00;47.20
23377;DHT22;14353;46.070;13.222;2022-08-30T09:20:51;30.00;47.20
23377;DHT22;14353;46.070;13.222;2022-08-30T09:23:25;29.90;47.10
23377;DHT22;14353;46.070;13.222;2022-08-30T09:26:00;30.00;47.20
23377;DHT22;14353;46.070;13.222;2022-08-30T09:28:33;30.00;47.20
23377;DHT22;14353;46.070;13.222;2022-08-30T09:31:05;30.00;47.10
23377;DHT22;14353;46.070;13.222;2022-08-30T09:33:32;30.00;47.00
23377;DHT22;14353;46.070;13.222;2022-08-30T09:36:24;30.00;46.90
23377;DHT22;14353;46.070;13.222;2022-08-30T09:39:12;30.00;46.90
23377;DHT22;14353;46.070;13.222;2022-08-30T09:41:42;30.00;47.10
23377;DHT22;14353;46.070;13.222;2022-08-30T09:44:24;30.00;47.00
23377;DHT22;14353;46.070;13.222;2022-08-30T09:46:57;30.10;47.00
23377;DHT22;14353;46.070;13.222;2022-08-30T09:49:29;30.10;47.00
23377;DHT22;14353;46.070;13.222;2022-08-30T09:54:59;30.10;46.80
23377;DHT22;14353;46.070;13.222;2022-08-30T10:00:22;30.10;46.60
23377;DHT22;14353;46.070;13.222;2022-08-30T10:03:01;30.10;46.60
23377;DHT22;14353;46.070;13.222;2022-08-30T10:11:35;30.20;46.50
23377;DHT22;14353;46.070;13.222;2022-08-30T10:17:37;30.20;46.40
23377;DHT22;14353;46.070;13.222;2022-08-30T10:20:03;30.20;46.30
23377;DHT22;14353;46.070;13.222;2022-08-30T10:22:42;30.30;46.30
23377;DHT22;14353;46.070;13.222;2022-08-30T10:25:31;30.30;46.20
23377;DHT22;14353;46.070;13.222;2022-08-30T10:28:13;30.40;46.20
23377;DHT22;14353;46.070;13.222;2022-08-30T10:30:54;30.40;46.20
23377;DHT22;14353;46.070;13.222;2022-08-30T10:33:25;30.40;46.10
23377;DHT22;14353;46.070;13.222;2022-08-30T10:35:56;30.40;46.10
23377;DHT22;14353;46.070;13.222;2022-08-30T10:38:36;30.40;46.10
23377;DHT22;14353;46.070;13.222;2022-08-30T10:41:31;30.40;46.00
23377;DHT22;14353;46.070;13.222;2022-08-30T10:50:00;30.40;45.90
23377;DHT22;14353;46.070;13.222;2022-08-30T10:53:02;30.50;45.90
23377;DHT22;14353;46.070;13.222;2022-08-30T10:55:52;30.50;45.90
23377;DHT22;14353;46.070;13.222;2022-08-30T10:58:20;30.50;45.80
23377;DHT22;14353;46.070;13.222;2022-08-30T11:06:14;30.60;45.60
23377;DHT22;14353;46.070;13.222;2022-08-30T11:09:20;30.60;45.50
23377;DHT22;14353;46.070;13.222;2022-08-30T11:14:28;30.70;45.50
23377;DHT22;14353;46.070;13.222;2022-08-30T11:16:58;30.70;45.40
23377;DHT22;14353;46.070;13.222;2022-08-30T11:19:37;30.70;45.30
23377;DHT22;14353;46.070;13.222;2022-08-30T11:22:13;30.80;45.30
23377;DHT22;14353;46.070;13.222;2022-08-30T11:25:09;30.80;45.20
23377;DHT22;14353;46.070;13.222;2022-08-30T11:33:26;30.90;45.10
23377;DHT22;14353;46.070;13.222;2022-08-30T11:35:50;30.90;45.00
23377;DHT22;14353;46.070;13.222;2022-08-30T11:46:58;31.00;44.70
23377;DHT22;14353;46.070;13.222;2022-08-30T11:58:08;31.10;44.50
23377;DHT22;14353;46.070;13.222;2022-08-30T12:00:41;31.20;44.40
23377;DHT22;14353;46.070;13.222;2022-08-30T12:05:47;31.20;44.30
23377;DHT22;14353;46.070;13.222;2022-08-30T12:14:46;31.30;44.10
23377;DHT22;14353;46.070;13.222;2022-08-30T12:17:32;31.40;44.10
23377;DHT22;14353;46.070;13.222;2022-08-30T12:20:45;31.40;44.10
23377;DHT22;14353;46.070;13.222;2022-08-30T12:23:39;31.40;44.00
23377;DHT22;14353;46.070;13.222;2022-08-30T12:28:49;31.50;43.90
23377;DHT22;14353;46.070;13.222;2022-08-30T12:31:22;31.50;43.80
23377;DHT22;14353;46.070;13.222;2022-08-30T12:37:32;31.60;43.80
23377;DHT22;14353;46.070;13.222;2022-08-30T12:40:13;31.60;43.70
23377;DHT22;14353;46.070;13.222;2022-08-30T12:43:05;31.70;43.70
23377;DHT22;14353;46.070;13.222;2022-08-30T12:45:44;31.70;43.60
23377;DHT22;14353;46.070;13.222;2022-08-30T12:48:17;31.70;43.50
23377;DHT22;14353;46.070;13.222;2022-08-30T12:50:53;31.70;43.50
23377;DHT22;14353;46.070;13.222;2022-08-30T12:53:39;31.80;43.50
23377;DHT22;14353;46.070;13.222;2022-08-30T12:56:17;31.80;43.50
23377;DHT22;14353;46.070;13.222;2022-08-30T12:58:52;31.80;43.40
23377;DHT22;14353;46.070;13.222;2022-08-30T13:02:05;31.80;43.30
23377;DHT22;14353;46.070;13.222;2022-08-30T13:04:31;31.90;43.30
23377;DHT22;14353;46.070;13.222;2022-08-30T13:07:00;31.90;43.30
23377;DHT22;14353;46.070;13.222;2022-08-30T13:09:35;31.90;43.30
23377;DHT22;14353;46.070;13.222;2022-08-30T13:12:06;31.90;43.40
23377;DHT22;14353;46.070;13.222;2022-08-30T13:14:48;31.90;43.20
23377;DHT22;14353;46.070;13.222;2022-08-30T13:17:26;32.00;43.30
23377;DHT22;14353;46.070;13.222;2022-08-30T13:22:34;32.00;43.10
23377;DHT22;14353;46.070;13.222;2022-08-30T13:25:09;32.00;43.10
23377;DHT22;14353;46.070;13.222;2022-08-30T13:27:42;32.10;43.00
23377;DHT22;14353;46.070;13.222;2022-08-30T13:30:10;32.10;43.00
23377;DHT22;14353;46.070;13.222;2022-08-30T13:32:48;32.10;43.00
23377;DHT22;14353;46.070;13.222;2022-08-30T13:35:21;32.10;42.90
23377;DHT22;14353;46.070;13.222;2022-08-30T13:37:58;32.20;42.90
23377;DHT22;14353;46.070;13.222;2022-08-30T13:40:43;32.20;42.90
23377;DHT22;14353;46.070;13.222;2022-08-30T13:43:19;32.20;42.80
23377;DHT22;14353;46.070;13.222;2022-08-30T13:45:45;32.20;42.80
23377;DHT22;14353;46.070;13.222;2022-08-30T13:48:13;32.30;42.80
23377;DHT22;14353;46.070;13.222;2022-08-30T13:50:40;32.20;42.70
23377;DHT22;14353;46.070;13.222;2022-08-30T13:53:08;32.30;42.70
23377;DHT22;14353;46.070;13.222;2022-08-30T13:55:35;32.40;42.70
23377;DHT22;14353;46.070;13.222;2022-08-30T13:58:02;32.30;42.60
23377;DHT22;14353;46.070;13.222;2022-08-30T14:00:28;32.40;42.60
23377;DHT22;14353;46.070;13.222;2022-08-30T14:02:57;32.40;42.60
23377;DHT22;14353;46.070;13.222;2022-08-30T14:05:26;32.40;42.60
23377;DHT22;14353;46.070;13.222;2022-08-30T14:07:55;32.40;42.50
23377;DHT22;14353;46.070;13.222;2022-08-30T14:10:24;32.50;42.60
23377;DHT22;14353;46.070;13.222;2022-08-30T14:12:51;32.50;42.50
23377;DHT22;14353;46.070;13.222;2022-08-30T14:15:17;32.50;42.50
23377;DHT22;14353;46.070;13.222;2022-08-30T14:17:43;32.50;42.50
23377;DHT22;14353;46.070;13.222;2022-08-30T14:20:10;32.50;42.50
23377;DHT22;14353;46.070;13.222;2022-08-30T14:22:36;32.50;42.50
23377;DHT22;14353;46.070;13.222;2022-08-30T14:25:03;32.50;42.50
23377;DHT22;14353;46.070;13.222;2022-08-30T14:27:29;32.60;42.50
23377;DHT22;14353;46.070;13.222;2022-08-30T14:29:56;32.60;42.50
23377;DHT22;14353;46.070;13.222;2022-08-30T14:32:22;32.60;42.50
23377;DHT22;14353;46.070;13.222;2022-08-30T14:34:51;32.60;43.10
23377;DHT22;14353;46.070;13.222;2022-08-30T14:37:17;32.60;42.50
23377;DHT22;14353;46.070;13.222;2022-08-30T14:39:43;32.50;42.50
23377;DHT22;14353;46.070;13.222;2022-08-30T14:42:09;32.50;42.50
23377;DHT22;14353;46.070;13.222;2022-08-30T14:44:37;32.50;42.60
23377;DHT22;14353;46.070;13.222;2022-08-30T14:47:04;32.50;42.60
23377;DHT22;14353;46.070;13.222;2022-08-30T14:49:30;32.50;42.60
23377;DHT22;14353;46.070;13.222;2022-08-30T14:51:56;32.50;42.50
23377;DHT22;14353;46.070;13.222;2022-08-30T14:54:24;32.60;42.60
23377;DHT22;14353;46.070;13.222;2022-08-30T14:56:51;32.50;42.50
23377;DHT22;14353;46.070;13.222;2022-08-30T14:59:17;32.60;42.50
23377;DHT22;14353;46.070;13.222;2022-08-30T15:01:45;32.60;42.50
23377;DHT22;14353;46.070;13.222;2022-08-30T15:04:12;32.60;42.60
23377;DHT22;14353;46.070;13.222;2022-08-30T15:06:44;32.50;42.50
23377;DHT22;14353;46.070;13.222;2022-08-30T15:09:12;32.50;42.60
23377;DHT22;14353;46.070;13.222;2022-08-30T15:11:39;32.50;42.60
23377;DHT22;14353;46.070;13.222;2022-08-30T15:14:06;32.50;42.60
23377;DHT22;14353;46.070;13.222;2022-08-30T15:16:34;32.50;42.60
23377;DHT22;14353;46.070;13.222;2022-08-30T15:19:02;32.40;42.60
23377;DHT22;14353;46.070;13.222;2022-08-30T15:21:31;32.50;42.70
23377;DHT22;14353;46.070;13.222;2022-08-30T15:24:01;32.40;42.70
23377;DHT22;14353;46.070;13.222;2022-08-30T15:26:27;32.40;42.70
23377;DHT22;14353;46.070;13.222;2022-08-30T15:28:53;32.40;42.70
23377;DHT22;14353;46.070;13.222;2022-08-30T15:31:23;32.40;42.80
23377;DHT22;14353;46.070;13.222;2022-08-30T15:33:49;32.40;42.90
23377;DHT22;14353;46.070;13.222;2022-08-30T15:36:16;32.40;42.90
23377;DHT22;14353;46.070;13.222;2022-08-30T15:38:42;32.40;43.00
23377;DHT22;14353;46.070;13.222;2022-08-30T15:41:10;32.30;42.90
23377;DHT22;14353;46.070;13.222;2022-08-30T15:43:37;32.30;42.90
23377;DHT22;14353;46.070;13.222;2022-08-30T15:46:24;32.30;42.90
23377;DHT22;14353;46.070;13.222;2022-08-30T15:48:54;32.30;43.00
23377;DHT22;14353;46.070;13.222;2022-08-30T15:51:23;32.30;43.00
23377;DHT22;14353;46.070;13.222;2022-08-30T15:53:50;32.30;43.00
23377;DHT22;14353;46.070;13.222;2022-08-30T15:56:20;32.40;43.00
23377;DHT22;14353;46.070;13.222;2022-08-30T15:58:46;32.40;43.00
23377;DHT22;14353;46.070;13.222;2022-08-30T16:01:13;32.40;42.90
23377;DHT22;14353;46.070;13.222;2022-08-30T16:03:39;32.40;42.90
23377;DHT22;14353;46.070;13.222;2022-08-30T16:06:11;32.40;42.90
23377;DHT22;14353;46.070;13.222;2022-08-30T16:08:37;32.40;42.80
23377;DHT22;14353;46.070;13.222;2022-08-30T16:11:08;32.40;42.80
23377;DHT22;14353;46.070;13.222;2022-08-30T16:13:35;32.50;42.90
23377;DHT22;14353;46.070;13.222;2022-08-30T16:16:05;32.50;42.90
23377;DHT22;14353;46.070;13.222;2022-08-30T16:18:31;32.50;42.80
23377;DHT22;14353;46.070;13.222;2022-08-30T16:21:06;32.50;42.80
23377;DHT22;14353;46.070;13.222;2022-08-30T16:23:34;32.50;42.80
23377;DHT22;14353;46.070;13.222;2022-08-30T16:26:00;32.50;42.80
23377;DHT22;14353;46.070;13.222;2022-08-30T16:28:26;32.50;42.80
23377;DHT22;14353;46.070;13.222;2022-08-30T16:30:52;32.50;42.80
23377;DHT22;14353;46.070;13.222;2022-08-30T16:33:21;32.50;42.90
23377;DHT22;14353;46.070;13.222;2022-08-30T16:35:54;32.50;42.90
23377;DHT22;14353;46.070;13.222;2022-08-30T16:38:23;32.50;42.90
23377;DHT22;14353;46.070;13.222;2022-08-30T16:40:49;32.50;42.90